createdAt,value
2023-03-29T00:21:43.739Z,1021.09
2023-03-29T00:50:47.011Z,1021.37
2023-03-29T01:19:49.458Z,1020.85
2023-03-29T01:48:48.781Z,1020.42
2023-03-29T02:17:52.022Z,1019.88
2023-03-29T02:46:46.497Z,1019.77
2023-03-29T03:15:42.393Z,1019.95
2023-03-29T03:44:37.972Z,1019.68
2023-03-29T04:13:38.221Z,1019.78
2023-03-29T04:42:40.468Z,1019.75
2023-03-29T05:11:41.465Z,1019.67
2023-03-29T05:40:25.335Z,1019.61
2023-03-29T06:09:29.199Z,1019.62
2023-03-29T06:38:00.447Z,1019.73
2023-03-29T07:06:58.122Z,1019.81
2023-03-29T07:35:53.275Z,1020.06
2023-03-29T08:04:47.436Z,1020.09
2023-03-29T08:33:33.940Z,1020.03
2023-03-29T09:02:32.032Z,1019.7
2023-03-29T09:31:24.445Z,1019.59
2023-03-29T10:00:02.786Z,1019.53
2023-03-29T10:28:54.169Z,1019.21
2023-03-29T11:03:21.990Z,1019.17
2023-03-29T11:31:03.353Z,1019.11
2023-03-29T11:59:40.369Z,1019
2023-03-29T15:14:54.575Z,1017.09
2023-03-29T15:43:51.467Z,1017.03
2023-03-29T16:12:50.030Z,1016.96
2023-03-29T16:41:42.536Z,1016.86
2023-03-29T17:10:16.321Z,1016.6
2023-03-29T17:38:55.185Z,1016.41
2023-03-29T18:07:49.770Z,1015.62
2023-03-29T18:36:35.900Z,1016.14
2023-03-29T19:05:25.706Z,1015.93
2023-03-29T19:34:03.117Z,1015.9
2023-03-29T20:02:52.562Z,1015.67
2023-03-29T20:31:35.120Z,1015.4
2023-03-29T21:00:14.842Z,1015.12
2023-03-29T21:29:04.604Z,1014.9
2023-03-29T21:57:48.709Z,1014.61
2023-03-29T22:55:41.418Z,1014.51
2023-03-29T23:24:44.261Z,1014.1
2023-03-29T23:53:44.267Z,1013.66
